Time;durP1;ratioP1;P1;durP2;ratioP2;P2;SDS_P1;SDS_P2;PMS_P1;PMS_P2;Temp;Humidity;BMP_temperature;BMP_pressure;BME280_temperature;BME280_humidity;BME280_pressure;Samples;Min_cycle;Max_cycle;Signal;HPM_P1;HPM_P2
2024/04/21 00:02:21;;;;;;;13.30;5.10;;;5.80;99.90;;;;;;5523660;26;20205;-72
2024/04/21 00:04:47;;;;;;;7.63;4.50;;;5.80;99.90;;;;;;5523768;25;20212;-72
2024/04/21 00:07:13;;;;;;;12.77;4.90;;;5.70;99.90;;;;;;5523621;26;20206;-72
2024/04/21 00:09:38;;;;;;;11.03;4.73;;;5.70;99.90;;;;;;5523518;26;20209;-71
2024/04/21 00:12:07;;;;;;;15.40;5.30;;;5.80;99.90;;;;;;5516595;26;20717;-71
2024/04/21 00:14:32;;;;;;;10.50;5.27;;;5.80;99.90;;;;;;5486462;26;20261;-71
2024/04/21 00:16:58;;;;;;;18.47;5.30;;;5.80;99.90;;;;;;5486632;26;20253;-72
2024/04/21 00:19:23;;;;;;;8.33;4.73;;;5.80;99.90;;;;;;5486124;26;20218;-71
2024/04/21 00:21:49;;;;;;;9.67;4.60;;;5.70;99.90;;;;;;5486408;26;20253;-72
2024/04/21 00:24:14;;;;;;;12.53;4.80;;;5.70;99.90;;;;;;5489042;26;20230;-71
2024/04/21 00:26:43;;;;;;;16.07;4.80;;;5.70;99.90;;;;;;5486563;26;20226;-71
2024/04/21 00:29:08;;;;;;;6.33;4.00;;;5.70;99.90;;;;;;5486353;26;20299;-71
2024/04/21 00:31:34;;;;;;;13.67;5.77;;;5.70;99.90;;;;;;5485651;26;20214;-71
2024/04/21 00:33:59;;;;;;;5.80;4.47;;;5.60;99.90;;;;;;5486472;26;20276;-71
2024/04/21 00:36:37;;;;;;;15.97;4.80;;;5.60;99.90;;;;;;5486425;26;20592;-72
2024/04/21 00:39:02;;;;;;;7.27;4.40;;;5.60;99.90;;;;;;5515369;26;20225;-71
2024/04/21 00:41:28;;;;;;;10.00;4.50;;;5.50;99.90;;;;;;5526319;26;20815;-71
2024/04/21 00:43:53;;;;;;;12.50;5.40;;;5.60;99.90;;;;;;5526667;25;20209;-71
2024/04/21 00:46:19;;;;;;;9.33;4.70;;;5.60;99.90;;;;;;5493449;26;20230;-71
2024/04/21 00:48:45;;;;;;;7.40;4.50;;;5.60;99.90;;;;;;5490060;26;20536;-71
2024/04/21 00:51:11;;;;;;;10.70;4.97;;;5.50;99.90;;;;;;5498044;26;20767;-72
2024/04/21 00:53:40;;;;;;;8.90;4.50;;;5.50;99.90;;;;;;5526284;25;20292;-71
2024/04/21 00:56:06;;;;;;;7.70;4.70;;;5.50;99.90;;;;;;5526511;26;20252;-71
2024/04/21 00:58:33;;;;;;;10.13;4.97;;;5.40;99.90;;;;;;5526290;26;20200;-71
2024/04/21 01:01:00;;;;;;;5.83;4.60;;;5.30;99.90;;;;;;5526086;26;20311;-71
2024/04/21 01:03:26;;;;;;;10.63;4.30;;;5.30;99.90;;;;;;5526227;26;20884;-71
2024/04/21 01:05:52;;;;;;;12.50;4.40;;;5.20;99.90;;;;;;5519662;25;20632;-71
2024/04/21 01:08:17;;;;;;;11.57;4.43;;;5.20;99.90;;;;;;5489669;26;20206;-72
2024/04/21 01:10:43;;;;;;;10.77;4.50;;;5.10;99.90;;;;;;5489188;26;20206;-71
2024/04/21 01:13:12;;;;;;;11.20;4.37;;;5.10;99.90;;;;;;5491656;26;20330;-71
2024/04/21 01:15:40;;;;;;;6.83;4.50;;;5.10;99.90;;;;;;5489360;26;20632;-71
2024/04/21 01:18:09;;;;;;;7.50;4.27;;;5.00;99.90;;;;;;5489815;26;20729;-71
2024/04/21 01:20:35;;;;;;;6.30;4.10;;;4.90;99.90;;;;;;5488845;26;20260;-71
2024/04/21 01:23:01;;;;;;;5.30;4.03;;;4.90;99.90;;;;;;5489832;26;20708;-72
2024/04/21 01:25:27;;;;;;;4.40;4.00;;;4.90;99.90;;;;;;5489636;26;20227;-71
2024/04/21 01:27:53;;;;;;;5.30;4.33;;;4.80;99.90;;;;;;5525911;26;20224;-71
2024/04/21 01:30:19;;;;;;;9.17;4.40;;;4.80;99.90;;;;;;5525774;26;20225;-72
2024/04/21 01:32:44;;;;;;;5.67;4.50;;;4.70;99.90;;;;;;5526449;26;20213;-71
2024/04/21 01:35:10;;;;;;;7.33;4.33;;;4.70;99.90;;;;;;5499372;26;20256;-71
2024/04/21 01:37:35;;;;;;;5.03;4.17;;;4.60;99.90;;;;;;5489194;26;20800;-71
2024/04/21 01:40:06;;;;;;;11.30;5.13;;;4.60;99.90;;;;;;5488712;26;20210;-71
2024/04/21 01:42:34;;;;;;;7.93;4.50;;;4.60;99.90;;;;;;5489038;26;20240;-71
2024/04/21 01:45:00;;;;;;;6.03;4.50;;;4.50;99.90;;;;;;5489028;26;20226;-71
2024/04/21 01:47:25;;;;;;;5.30;4.80;;;4.60;99.90;;;;;;5456718;26;20258;-71
2024/04/21 01:49:51;;;;;;;5.73;5.00;;;4.60;99.90;;;;;;5513125;26;20217;-71
2024/04/21 01:52:17;;;;;;;7.47;5.27;;;4.60;99.90;;;;;;5525902;26;20648;-71
2024/04/21 01:54:42;;;;;;;6.97;4.53;;;4.60;99.90;;;;;;5525737;25;20217;-71
2024/04/21 01:57:08;;;;;;;9.83;5.57;;;4.50;99.90;;;;;;5493292;26;20228;-71
2024/04/21 01:59:33;;;;;;;12.10;5.57;;;4.50;99.90;;;;;;5525473;26;20308;-71
2024/04/21 02:01:59;;;;;;;8.63;5.33;;;4.40;99.90;;;;;;5516129;26;20268;-71
2024/04/21 02:04:30;;;;;;;16.13;5.90;;;4.40;99.90;;;;;;5488121;26;20233;-71
2024/04/21 02:06:55;;;;;;;8.53;5.00;;;4.40;99.90;;;;;;5488789;26;20822;-70
2024/04/21 02:09:21;;;;;;;6.43;4.80;;;4.40;99.90;;;;;;5488107;26;20252;-70
2024/04/21 02:11:49;;;;;;;10.50;4.80;;;4.50;99.90;;;;;;5488466;26;20202;-71
2024/04/21 02:14:15;;;;;;;8.83;5.47;;;4.50;99.90;;;;;;5509068;25;20276;-71
2024/04/21 02:16:40;;;;;;;7.57;4.83;;;4.50;99.90;;;;;;5525204;26;20205;-72
2024/04/21 02:19:08;;;;;;;7.27;4.53;;;4.20;99.90;;;;;;5524654;26;20248;-71
2024/04/21 02:21:34;;;;;;;4.97;4.13;;;3.80;99.90;;;;;;5524459;26;20261;-71
2024/04/21 02:24:00;;;;;;;4.60;4.27;;;3.60;99.90;;;;;;5524896;25;20264;-71
2024/04/21 02:26:25;;;;;;;4.53;3.90;;;3.50;99.90;;;;;;5506740;26;20218;-71
2024/04/21 02:28:51;;;;;;;3.90;3.60;;;3.40;99.90;;;;;;5488270;26;20206;-71
2024/04/21 02:31:17;;;;;;;4.13;3.73;;;3.30;99.90;;;;;;5515932;26;20233;-71
2024/04/21 02:33:42;;;;;;;4.43;4.07;;;3.30;99.90;;;;;;5525072;25;20288;-70
2024/04/21 02:36:08;;;;;;;6.23;4.37;;;3.20;99.90;;;;;;5525363;26;20548;-71
2024/04/21 02:38:33;;;;;;;6.83;4.10;;;3.00;99.90;;;;;;5520000;26;20268;-71
2024/04/21 02:40:59;;;;;;;6.40;4.40;;;3.00;99.90;;;;;;5488304;26;20245;-70
2024/04/21 02:43:24;;;;;;;7.67;4.57;;;2.90;99.90;;;;;;5488458;26;20222;-71
2024/04/21 02:45:50;;;;;;;7.97;4.40;;;2.90;99.90;;;;;;5488889;26;20222;-71
2024/04/21 02:48:16;;;;;;;5.17;3.97;;;2.90;99.90;;;;;;5489310;26;20206;-70
2024/04/21 02:50:41;;;;;;;3.90;3.70;;;2.90;99.90;;;;;;5489508;26;20206;-71
2024/04/21 02:53:07;;;;;;;4.43;4.13;;;3.00;99.90;;;;;;5490860;26;20294;-71
2024/04/21 02:55:32;;;;;;;7.13;4.63;;;3.00;99.90;;;;;;5528137;25;20216;-71
2024/04/21 02:57:58;;;;;;;4.60;3.97;;;3.00;99.90;;;;;;5519970;26;20281;-71
2024/04/21 03:00:23;;;;;;;4.13;3.90;;;2.90;99.90;;;;;;5491616;26;20210;-71
2024/04/21 03:02:49;;;;;;;4.77;4.37;;;2.80;99.90;;;;;;5491620;26;20753;-71
2024/04/21 03:05:15;;;;;;;5.37;4.70;;;2.80;99.90;;;;;;5489437;26;20226;-71
2024/04/21 03:07:40;;;;;;;6.47;4.47;;;2.70;99.90;;;;;;5487249;26;20620;-71
2024/04/21 03:10:07;;;;;;;7.20;4.67;;;2.70;99.90;;;;;;5487920;26;20210;-71
2024/04/21 03:12:32;;;;;;;7.27;4.50;;;2.60;99.90;;;;;;5492594;26;20226;-71
2024/04/21 03:14:58;;;;;;;4.93;4.50;;;2.60;99.90;;;;;;5525267;25;20252;-71
2024/04/21 03:17:23;;;;;;;6.60;4.57;;;2.50;99.90;;;;;;5525244;26;20699;-71
2024/04/21 03:19:52;;;;;;;5.70;5.13;;;2.50;99.90;;;;;;5492511;26;20217;-71
2024/04/21 03:22:18;;;;;;;4.70;4.20;;;2.50;99.90;;;;;;5524850;26;20213;-71
2024/04/21 03:24:43;;;;;;;5.10;4.60;;;2.50;99.90;;;;;;5525017;25;20274;-71
2024/04/21 03:27:09;;;;;;;4.90;4.40;;;2.40;99.90;;;;;;5522504;26;20221;-71
2024/04/21 03:29:34;;;;;;;4.83;4.53;;;2.50;99.90;;;;;;5524484;26;20209;-71
2024/04/21 03:32:00;;;;;;;5.63;5.13;;;2.50;99.90;;;;;;5524644;26;20259;-71
2024/04/21 03:34:28;;;;;;;6.83;4.67;;;2.50;99.90;;;;;;5524390;25;20217;-71
2024/04/21 03:36:54;;;;;;;6.47;5.20;;;2.50;99.90;;;;;;5524499;26;20241;-70
2024/04/21 03:39:21;;;;;;;7.63;5.37;;;2.50;99.90;;;;;;5524370;26;20318;-71
2024/04/21 03:41:47;;;;;;;6.40;4.73;;;2.50;99.90;;;;;;5501430;26;20218;-71
2024/04/21 03:44:13;;;;;;;10.40;5.30;;;2.50;99.90;;;;;;5487836;26;20701;-70
2024/04/21 03:46:38;;;;;;;8.47;5.40;;;2.50;99.90;;;;;;5487675;26;20209;-71
2024/04/21 03:49:04;;;;;;;5.83;5.27;;;2.50;99.90;;;;;;5487348;26;20561;-71
2024/04/21 03:51:32;;;;;;;9.60;5.73;;;2.50;99.90;;;;;;5488973;26;20516;-70
2024/04/21 03:53:57;;;;;;;8.60;6.03;;;2.50;99.90;;;;;;5487502;26;20226;-71
2024/04/21 03:56:23;;;;;;;7.00;5.30;;;2.50;99.90;;;;;;5487563;26;20315;-71
2024/04/21 03:58:48;;;;;;;8.93;5.83;;;2.60;99.90;;;;;;5487363;26;20207;-71
2024/04/21 04:01:17;;;;;;;7.10;5.57;;;2.50;99.90;;;;;;5487321;26;20593;-71
2024/04/21 04:03:43;;;;;;;6.47;5.37;;;2.50;99.90;;;;;;5487015;26;20249;-71
2024/04/21 04:06:11;;;;;;;13.23;6.00;;;2.50;99.90;;;;;;5457760;26;20225;-70
2024/04/21 04:08:36;;;;;;;6.80;6.07;;;2.50;99.90;;;;;;5524222;26;20502;-71
2024/04/21 04:11:02;;;;;;;8.17;5.47;;;2.50;99.90;;;;;;5524202;26;20277;-70
2024/04/21 04:13:28;;;;;;;5.87;5.03;;;2.50;99.90;;;;;;5523974;26;20256;-70
2024/04/21 04:15:53;;;;;;;8.47;6.00;;;2.50;99.90;;;;;;5524047;25;20251;-70
2024/04/21 04:18:19;;;;;;;14.03;5.47;;;2.50;99.90;;;;;;5523955;26;20205;-70
2024/04/21 04:20:46;;;;;;;6.73;4.90;;;2.50;99.90;;;;;;5518613;26;20225;-70
2024/04/21 04:23:11;;;;;;;9.37;5.60;;;2.50;99.90;;;;;;5523972;26;20269;-70
2024/04/21 04:25:37;;;;;;;9.73;5.20;;;2.50;99.90;;;;;;5523609;25;20302;-70
2024/04/21 04:28:03;;;;;;;7.40;6.07;;;2.60;99.90;;;;;;5523962;26;20635;-70
2024/04/21 04:30:29;;;;;;;6.63;5.80;;;2.60;99.90;;;;;;5523126;26;20596;-70
2024/04/21 04:32:55;;;;;;;9.80;5.70;;;2.60;99.90;;;;;;5496403;26;20218;-70
2024/04/21 04:35:20;;;;;;;9.60;5.60;;;2.70;99.90;;;;;;5485789;26;20222;-70
2024/04/21 04:37:46;;;;;;;9.23;5.57;;;2.70;99.90;;;;;;5486187;26;20686;-70
2024/04/21 04:40:12;;;;;;;8.67;5.70;;;2.80;99.90;;;;;;5486028;26;20202;-70
2024/04/21 04:42:40;;;;;;;9.53;5.37;;;2.80;99.90;;;;;;5486057;26;20210;-70
2024/04/21 04:45:08;;;;;;;9.87;5.27;;;3.00;99.90;;;;;;5485925;26;20286;-70
2024/04/21 04:47:34;;;;;;;13.43;5.37;;;3.00;99.90;;;;;;5507213;26;20221;-70
2024/04/21 04:50:03;;;;;;;9.10;5.00;;;3.10;99.90;;;;;;5522399;26;20255;-70
2024/04/21 04:52:31;;;;;;;9.60;5.00;;;3.20;99.90;;;;;;5509307;26;20222;-70
2024/04/21 04:54:56;;;;;;;5.10;4.60;;;3.30;99.90;;;;;;5485697;26;20265;-70
2024/04/21 04:57:22;;;;;;;10.73;5.17;;;3.40;99.90;;;;;;5521061;26;20567;-70
2024/04/21 04:59:48;;;;;;;12.20;5.47;;;3.50;99.90;;;;;;5522123;26;20374;-71
2024/04/21 05:02:13;;;;;;;15.20;6.23;;;3.50;99.90;;;;;;5522562;26;20248;-70
2024/04/21 05:04:39;;;;;;;10.13;5.63;;;3.50;99.90;;;;;;5522152;25;20286;-70
2024/04/21 05:07:07;;;;;;;7.50;6.00;;;3.60;99.90;;;;;;5503012;26;20798;-70
2024/04/21 05:09:32;;;;;;;7.40;5.97;;;3.70;99.90;;;;;;5485696;26;20257;-70
2024/04/21 05:11:58;;;;;;;12.60;6.03;;;3.80;99.90;;;;;;5485502;26;20211;-70
2024/04/21 05:14:24;;;;;;;9.77;5.77;;;3.80;99.90;;;;;;5506274;25;20249;-70
2024/04/21 05:16:49;;;;;;;10.63;6.73;;;3.90;99.90;;;;;;5522590;26;20206;-70
2024/04/21 05:19:15;;;;;;;15.60;6.20;;;4.00;99.90;;;;;;5521878;26;20700;-70
2024/04/21 05:21:43;;;;;;;10.97;6.30;;;4.10;99.90;;;;;;5516651;26;20392;-70
2024/04/21 05:24:08;;;;;;;9.87;6.10;;;4.00;99.90;;;;;;5498323;25;20225;-70
2024/04/21 05:26:34;;;;;;;7.03;5.90;;;4.10;99.90;;;;;;5526218;26;20279;-70
2024/04/21 05:28:59;;;;;;;16.43;7.20;;;4.00;99.90;;;;;;5525892;26;20574;-70
2024/04/21 05:31:25;;;;;;;14.57;6.53;;;3.90;99.90;;;;;;5525266;26;20213;-70
2024/04/21 05:33:50;;;;;;;9.50;6.67;;;4.00;99.90;;;;;;5525331;25;20607;-70
2024/04/21 05:36:16;;;;;;;15.83;6.47;;;4.10;99.90;;;;;;5514624;26;20218;-71
2024/04/21 05:38:41;;;;;;;14.20;6.10;;;4.20;99.90;;;;;;5489189;26;20681;-71
2024/04/21 05:41:07;;;;;;;11.93;6.07;;;4.20;99.90;;;;;;5488813;26;20314;-72
2024/04/21 05:43:33;;;;;;;12.43;6.67;;;4.40;99.90;;;;;;5488979;26;20249;-70
2024/04/21 05:46:04;;;;;;;14.20;6.17;;;4.60;99.90;;;;;;5491586;26;20268;-70
2024/04/21 05:48:30;;;;;;;14.03;6.00;;;4.70;99.90;;;;;;5488813;26;20237;-70
2024/04/21 05:50:56;;;;;;;8.43;5.33;;;4.90;99.90;;;;;;5488520;26;20330;-71
2024/04/21 05:53:22;;;;;;;15.73;5.67;;;5.10;99.90;;;;;;5508784;26;20302;-71
2024/04/21 05:55:47;;;;;;;11.83;6.07;;;5.30;99.90;;;;;;5660486;20;20287;-88
2024/04/21 05:58:13;;;;;;;9.80;5.60;;;5.40;99.90;;;;;;5383585;26;20224;-87
2024/04/21 06:00:39;;;;;;;8.63;5.97;;;5.40;99.90;;;;;;5381459;26;20255;-88
2024/04/21 06:03:05;;;;;;;9.23;5.67;;;5.40;99.90;;;;;;5382855;26;20273;-87
2024/04/21 06:05:32;;;;;;;7.47;5.70;;;5.50;99.90;;;;;;5414739;26;20209;-88
2024/04/21 06:07:58;;;;;;;12.03;5.90;;;5.70;99.90;;;;;;5382695;26;20244;-88
2024/04/21 06:10:24;;;;;;;9.30;5.63;;;5.90;99.90;;;;;;5411160;26;20240;-88
2024/04/21 06:12:53;;;;;;;15.40;5.70;;;6.20;99.90;;;;;;5414189;26;20220;-89
2024/04/21 06:15:19;;;;;;;9.77;5.07;;;6.40;99.90;;;;;;5412717;26;20224;-89
2024/04/21 06:17:45;;;;;;;6.80;5.50;;;6.50;99.90;;;;;;5414333;26;20232;-88
2024/04/21 06:20:11;;;;;;;5.77;4.17;;;6.50;99.90;;;;;;5414186;26;20345;-88
2024/04/21 06:22:40;;;;;;;10.30;5.00;;;6.50;99.90;;;;;;5413427;26;20232;-88
2024/04/21 06:25:07;;;;;;;8.20;4.60;;;6.50;99.90;;;;;;5414088;26;20248;-88
2024/04/21 06:27:34;;;;;;;9.03;5.30;;;6.50;99.90;;;;;;5414347;26;20309;-88
2024/04/21 06:30:00;;;;;;;11.47;4.50;;;6.40;99.90;;;;;;5414426;26;20231;-88
2024/04/21 06:32:27;;;;;;;8.67;4.40;;;6.30;99.90;;;;;;5384356;26;20281;-88
2024/04/21 06:34:55;;;;;;;11.07;5.03;;;6.20;99.90;;;;;;5414563;26;20236;-90
2024/04/21 06:37:20;;;;;;;8.37;4.60;;;6.20;99.90;;;;;;5417503;26;20266;-89
2024/04/21 06:39:46;;;;;;;13.37;4.80;;;6.40;99.90;;;;;;5421302;26;20220;-89
2024/04/21 06:42:13;;;;;;;8.77;4.47;;;6.50;99.90;;;;;;5388315;26;20241;-89
2024/04/21 06:44:40;;;;;;;6.77;4.43;;;6.50;99.90;;;;;;5380925;26;20241;-88
2024/04/21 06:47:09;;;;;;;8.67;4.40;;;6.80;99.90;;;;;;5382914;26;20217;-89
2024/04/21 06:49:36;;;;;;;10.23;5.57;;;7.20;99.90;;;;;;5355540;26;20226;-89
2024/04/21 06:52:05;;;;;;;16.37;6.10;;;7.50;99.90;;;;;;5385071;26;20233;-89
2024/04/21 06:54:31;;;;;;;5.67;4.13;;;7.90;99.90;;;;;;5384134;26;20225;-92
2024/04/21 06:56:59;;;;;;;10.13;4.40;;;8.10;99.90;;;;;;5384363;26;20665;-88
2024/04/21 06:59:24;;;;;;;17.67;8.63;;;8.20;99.90;;;;;;5401286;26;20236;-88
2024/04/21 07:01:51;;;;;;;8.10;4.93;;;8.10;99.90;;;;;;5418939;26;20258;-89
2024/04/21 07:04:18;;;;;;;11.07;5.67;;;7.90;99.90;;;;;;5419641;26;20232;-88
2024/04/21 07:06:43;;;;;;;27.20;15.30;;;7.70;99.90;;;;;;5392527;26;20231;-89
2024/04/21 07:09:09;;;;;;;31.03;19.67;;;7.60;99.90;;;;;;5422953;26;20281;-88
2024/04/21 07:11:35;;;;;;;10.57;7.53;;;7.50;1.00;;;;;;5421590;26;20216;-88
2024/04/21 07:16:32;;;;;;;12.33;7.47;;;7.40;1.00;;;;;;5400323;26;20238;-72
2024/04/21 07:18:58;;;;;;;11.37;6.70;;;7.40;1.00;;;;;;5403967;26;20308;-72
2024/04/21 07:21:23;;;;;;;9.63;6.27;;;7.40;1.00;;;;;;5404257;26;20204;-72
2024/04/21 07:23:49;;;;;;;10.03;6.50;;;7.60;99.90;;;;;;5404157;26;20700;-71
2024/04/21 07:26:14;;;;;;;9.30;6.60;;;7.70;1.00;;;;;;5371545;26;20597;-72
2024/04/21 07:28:40;;;;;;;9.63;5.93;;;8.00;99.90;;;;;;5366762;26;20230;-72
2024/04/21 07:31:06;;;;;;;9.30;6.60;;;8.10;1.00;;;;;;5368769;26;20329;-73
2024/04/21 07:33:31;;;;;;;11.03;7.50;;;8.10;1.00;;;;;;5369446;26;20611;-72
2024/04/21 07:35:57;;;;;;;10.70;6.73;;;8.10;1.00;;;;;;5368914;26;20221;-72
2024/04/21 07:38:23;;;;;;;9.53;6.27;;;8.00;1.00;;;;;;5369219;26;20209;-72
2024/04/21 07:40:48;;;;;;;11.93;6.60;;;7.80;1.00;;;;;;5368519;26;20258;-72
2024/04/21 07:43:14;;;;;;;13.73;7.47;;;7.70;1.00;;;;;;5367084;26;20221;-72
2024/04/21 07:45:40;;;;;;;9.23;6.07;;;7.70;1.00;;;;;;5368688;26;20218;-71
2024/04/21 07:48:06;;;;;;;11.43;6.40;;;7.80;1.00;;;;;;5368361;26;20313;-72
2024/04/21 07:50:32;;;;;;;8.93;6.50;;;8.00;1.00;;;;;;5369284;26;20205;-72
2024/04/21 07:52:58;;;;;;;10.47;5.80;;;8.30;1.00;;;;;;5369145;26;20213;-72
2024/04/21 07:55:24;;;;;;;9.97;5.87;;;8.60;1.00;;;;;;5369035;26;20251;-72
2024/04/21 07:57:50;;;;;;;9.63;5.40;;;9.00;1.00;;;;;;5369087;26;20205;-72
2024/04/21 08:00:15;;;;;;;6.70;5.07;;;9.10;1.00;;;;;;5369037;26;20255;-72
2024/04/21 08:02:41;;;;;;;8.20;5.57;;;9.10;1.00;;;;;;5368570;26;20294;-72
2024/04/21 08:05:06;;;;;;;5.57;4.73;;;8.90;1.00;;;;;;5368636;26;20280;-71
2024/04/21 08:07:32;;;;;;;8.80;5.07;;;8.80;1.00;;;;;;5368800;26;20264;-72
2024/04/21 08:09:58;;;;;;;8.83;6.50;;;8.50;1.00;;;;;;5368572;26;20706;-72
2024/04/21 08:12:23;;;;;;;8.93;5.47;;;8.30;1.00;;;;;;5368712;26;20323;-72
2024/04/21 08:14:49;;;;;;;9.53;5.20;;;8.00;1.00;;;;;;5368597;26;20809;-72
2024/04/21 08:17:14;;;;;;;8.73;5.20;;;7.90;1.00;;;;;;5374694;26;20267;-73
2024/04/21 08:19:40;;;;;;;6.23;5.07;;;7.60;1.00;;;;;;5400363;26;20238;-73
2024/04/21 08:22:06;;;;;;;11.47;5.13;;;7.60;1.00;;;;;;5368753;26;20225;-73
2024/04/21 08:24:32;;;;;;;10.37;4.80;;;7.60;1.00;;;;;;5369024;26;20241;-72
2024/04/21 08:26:57;;;;;;;6.27;5.10;;;7.60;1.00;;;;;;5369266;26;20209;-72
2024/04/21 08:29:23;;;;;;;10.37;5.00;;;7.60;1.00;;;;;;5368861;26;20587;-72
2024/04/21 08:31:50;;;;;;;7.57;5.20;;;7.60;1.00;;;;;;5368553;26;20218;-72
2024/04/21 08:34:16;;;;;;;9.83;5.17;;;7.50;1.00;;;;;;5368714;26;20222;-72
2024/04/21 08:36:41;;;;;;;10.27;4.90;;;7.50;1.00;;;;;;5368693;26;20263;-72
2024/04/21 08:39:07;;;;;;;9.20;5.00;;;7.60;1.00;;;;;;5368173;26;20229;-72
2024/04/21 08:41:39;;;;;;;6.77;4.60;;;7.60;1.00;;;;;;5368010;26;20217;-73
2024/04/21 08:44:11;;;;;;;8.60;4.47;;;7.60;1.00;;;;;;5367813;26;20701;-72
2024/04/21 08:46:37;;;;;;;4.87;4.37;;;7.70;1.00;;;;;;5368135;26;20226;-72
2024/04/21 08:49:04;;;;;;;7.27;4.77;;;7.70;1.00;;;;;;5367287;26;20229;-73
2024/04/21 08:51:34;;;;;;;9.37;5.50;;;7.70;1.00;;;;;;5367000;26;20779;-72
2024/04/21 08:54:00;;;;;;;5.53;4.47;;;7.60;1.00;;;;;;5367418;26;20552;-72
2024/04/21 08:56:29;;;;;;;4.80;4.43;;;7.80;1.00;;;;;;5367773;26;20767;-72
2024/04/21 08:58:55;;;;;;;9.87;5.00;;;7.90;1.00;;;;;;5366950;26;20225;-72
2024/04/21 09:01:22;;;;;;;6.30;5.07;;;7.90;1.00;;;;;;5371225;26;20293;-72
2024/04/21 09:03:49;;;;;;;7.13;5.43;;;8.00;1.00;;;;;;5370861;26;20547;-72
2024/04/21 09:06:25;;;;;;;7.43;4.83;;;8.20;1.00;;;;;;5372402;26;20277;-72
2024/04/21 09:08:52;;;;;;;6.33;4.77;;;8.30;1.00;;;;;;5371877;26;20221;-74
2024/04/21 09:11:18;;;;;;;7.70;5.27;;;8.30;99.90;;;;;;5353755;26;20237;-72
2024/04/21 09:13:43;;;;;;;5.50;4.63;;;8.40;99.90;;;;;;5371116;26;20311;-72
2024/04/21 09:16:10;;;;;;;7.23;5.03;;;8.60;99.90;;;;;;5371439;26;20738;-72
2024/04/21 09:18:35;;;;;;;6.50;4.83;;;8.80;99.90;;;;;;5371987;26;20264;-73
2024/04/21 09:21:01;;;;;;;4.97;4.57;;;9.10;99.90;;;;;;5371334;26;20222;-73
2024/04/21 09:23:27;;;;;;;5.43;4.70;;;9.30;99.90;;;;;;5372058;26;20260;-72
2024/04/21 09:25:52;;;;;;;6.27;5.40;;;9.20;99.90;;;;;;5371748;26;20221;-72
2024/04/21 09:28:18;;;;;;;6.20;5.20;;;9.20;99.90;;;;;;5371707;26;20257;-72
2024/04/21 09:30:45;;;;;;;5.37;4.87;;;9.20;99.90;;;;;;5370930;26;20217;-73
2024/04/21 09:33:11;;;;;;;6.67;4.90;;;9.40;99.90;;;;;;5371497;26;20269;-73
2024/04/21 09:35:37;;;;;;;5.97;5.47;;;9.50;99.90;;;;;;5371549;26;20264;-73
2024/04/21 09:38:03;;;;;;;5.57;5.13;;;9.40;99.90;;;;;;5371542;26;20206;-73
2024/04/21 09:40:30;;;;;;;5.73;5.23;;;9.30;99.90;;;;;;5371239;26;20248;-72
2024/04/21 09:42:56;;;;;;;6.07;4.90;;;9.10;99.90;;;;;;5371561;26;20214;-72
2024/04/21 09:45:24;;;;;;;6.27;5.77;;;9.10;99.90;;;;;;5371481;26;20530;-72
2024/04/21 09:47:52;;;;;;;6.30;5.40;;;9.10;99.90;;;;;;5369735;26;20567;-72
2024/04/21 09:50:20;;;;;;;6.30;5.70;;;9.10;99.90;;;;;;5370985;26;20218;-73
2024/04/21 09:52:49;;;;;;;5.47;5.03;;;9.30;99.90;;;;;;5371430;26;20637;-72
2024/04/21 09:55:15;;;;;;;6.80;5.10;;;9.20;99.90;;;;;;5371604;26;20222;-72
2024/04/21 09:57:43;;;;;;;6.07;5.57;;;9.20;99.90;;;;;;5371227;26;20307;-72
2024/04/21 10:00:11;;;;;;;6.13;5.50;;;9.30;99.90;;;;;;5371167;26;20218;-73
2024/04/21 10:02:45;;;;;;;6.20;5.60;;;9.30;99.90;;;;;;5371918;26;20255;-72
2024/04/21 10:05:15;;;;;;;6.47;4.97;;;9.40;99.90;;;;;;5371310;26;20631;-72
2024/04/21 10:07:42;;;;;;;5.67;4.83;;;9.50;99.90;;;;;;5371508;26;20592;-72
2024/04/21 10:10:09;;;;;;;4.87;4.53;;;9.70;99.90;;;;;;5369664;26;20209;-72
2024/04/21 10:12:35;;;;;;;5.27;4.30;;;10.00;99.90;;;;;;5369268;26;20260;-72
2024/04/21 10:15:03;;;;;;;4.67;4.27;;;10.50;99.90;;;;;;5370581;26;20229;-73
2024/04/21 10:17:29;;;;;;;4.80;4.17;;;11.30;99.90;;;;;;5371041;26;20240;-74
2024/04/21 10:20:05;;;;;;;4.63;3.80;;;11.90;99.90;;;;;;5370886;26;20218;-73
2024/04/21 10:22:36;;;;;;;4.63;4.23;;;12.40;99.90;;;;;;5370733;26;20244;-73
2024/04/21 10:25:07;;;;;;;4.00;3.70;;;12.80;99.90;;;;;;5370507;26;20660;-73
2024/04/21 10:27:33;;;;;;;3.73;3.50;;;12.80;99.90;;;;;;5373755;26;20221;-73
2024/04/21 10:30:10;;;;;;;5.00;4.10;;;12.70;99.90;;;;;;5405764;26;20646;-74
2024/04/21 10:32:36;;;;;;;4.13;3.80;;;12.30;99.90;;;;;;5406860;26;20204;-73
2024/04/21 10:35:01;;;;;;;4.63;4.20;;;12.20;99.90;;;;;;5407008;26;20999;-73
2024/04/21 10:37:27;;;;;;;4.20;3.90;;;12.10;99.90;;;;;;5406684;26;20238;-73
2024/04/21 10:40:05;;;;;;;4.60;3.70;;;12.10;99.90;;;;;;5406078;26;20221;-73
2024/04/21 10:42:32;;;;;;;4.83;4.43;;;12.00;99.90;;;;;;5396201;26;20743;-73
2024/04/21 10:44:59;;;;;;;4.77;4.37;;;12.00;99.90;;;;;;5371081;26;20233;-73
2024/04/21 10:47:25;;;;;;;4.30;4.00;;;12.20;99.90;;;;;;5371594;26;20325;-73
2024/04/21 10:49:51;;;;;;;5.37;4.50;;;12.30;99.90;;;;;;5371042;26;20260;-74
2024/04/21 10:52:17;;;;;;;4.53;4.13;;;12.30;99.90;;;;;;5371067;26;20209;-73
2024/04/21 10:54:43;;;;;;;3.83;3.53;;;12.30;99.90;;;;;;5370871;26;20241;-73
2024/04/21 10:57:08;;;;;;;4.73;4.30;;;12.20;99.90;;;;;;5371184;26;20229;-73
2024/04/21 10:59:34;;;;;;;3.90;3.60;;;12.40;99.90;;;;;;5371374;26;20210;-73
2024/04/21 11:02:00;;;;;;;3.90;3.60;;;12.60;99.90;;;;;;5370818;26;20265;-74
2024/04/21 11:04:26;;;;;;;3.77;3.47;;;12.90;99.90;;;;;;5370786;26;20233;-73
2024/04/21 11:06:53;;;;;;;4.30;3.90;;;13.30;99.90;;;;;;5370729;26;20544;-73
2024/04/21 11:09:20;;;;;;;3.30;3.10;;;13.60;99.90;;;;;;5369704;26;20221;-74
2024/04/21 11:11:46;;;;;;;3.37;3.17;;;14.10;99.90;;;;;;5369419;26;20205;-73
2024/04/21 11:14:12;;;;;;;4.23;3.17;;;14.40;99.90;;;;;;5369569;26;20256;-73
2024/04/21 11:16:38;;;;;;;3.73;3.43;;;14.30;99.90;;;;;;5370833;26;20579;-73
2024/04/21 11:19:04;;;;;;;3.30;3.07;;;13.80;99.90;;;;;;5370317;26;20322;-73
2024/04/21 11:21:30;;;;;;;3.73;3.40;;;13.20;99.90;;;;;;5369003;26;20210;-74
2024/04/21 11:23:56;;;;;;;4.03;3.73;;;12.80;99.90;;;;;;5369608;26;20238;-74
2024/04/21 11:26:21;;;;;;;3.83;3.53;;;12.80;99.90;;;;;;5369837;26;20796;-73
2024/04/21 11:28:47;;;;;;;3.80;3.50;;;13.20;99.90;;;;;;5370127;26;20244;-72
2024/04/21 11:31:13;;;;;;;3.67;3.40;;;13.30;99.90;;;;;;5370208;26;20217;-73
2024/04/21 11:33:39;;;;;;;4.30;3.70;;;13.30;99.90;;;;;;5371075;26;20217;-74
2024/04/21 11:36:19;;;;;;;4.57;3.43;;;13.20;99.90;;;;;;5371855;26;20276;-74
2024/04/21 11:38:45;;;;;;;3.33;3.13;;;13.00;99.90;;;;;;5371835;26;20222;-74
2024/04/21 11:41:14;;;;;;;3.20;2.97;;;12.80;99.90;;;;;;5369234;26;20666;-73
2024/04/21 11:43:43;;;;;;;3.50;3.20;;;12.50;99.90;;;;;;5370092;26;20290;-73
2024/04/21 11:46:09;;;;;;;3.80;3.43;;;12.40;99.90;;;;;;5370980;26;20272;-74
2024/04/21 11:48:35;;;;;;;3.30;3.10;;;12.40;99.90;;;;;;5371605;26;20218;-74
2024/04/21 11:51:02;;;;;;;3.20;3.00;;;12.50;99.90;;;;;;5370653;26;20221;-73
2024/04/21 11:53:28;;;;;;;3.17;2.97;;;12.40;99.90;;;;;;5369859;26;20260;-73
2024/04/21 11:55:54;;;;;;;3.63;3.30;;;12.50;99.90;;;;;;5367216;26;20225;-72
2024/04/21 11:58:20;;;;;;;3.10;2.90;;;12.50;99.90;;;;;;5369338;26;20250;-72
2024/04/21 12:00:46;;;;;;;3.10;2.90;;;12.70;99.90;;;;;;5368734;26;20221;-72
2024/04/21 12:03:11;;;;;;;3.70;3.40;;;12.70;99.90;;;;;;5368735;26;20277;-72
2024/04/21 12:05:37;;;;;;;3.90;3.50;;;12.60;99.90;;;;;;5367615;26;20747;-72
2024/04/21 12:08:03;;;;;;;3.47;3.17;;;12.40;99.90;;;;;;5368623;26;20244;-72
2024/04/21 12:10:29;;;;;;;3.57;3.10;;;12.30;99.90;;;;;;5368139;26;20284;-73
2024/04/21 12:12:55;;;;;;;3.10;2.83;;;12.20;99.90;;;;;;5368367;26;20617;-73
2024/04/21 12:15:21;;;;;;;3.53;3.00;;;12.60;99.90;;;;;;5368368;26;20271;-75
2024/04/21 12:17:46;;;;;;;3.17;2.97;;;13.00;99.90;;;;;;5368668;26;20213;-74
2024/04/21 12:20:14;;;;;;;3.40;2.73;;;13.30;99.90;;;;;;5366128;26;20977;-74
2024/04/21 12:22:41;;;;;;;2.80;2.60;;;13.80;99.90;;;;;;5368708;26;20245;-75
2024/04/21 12:25:06;;;;;;;2.83;2.63;;;14.00;99.90;;;;;;5366116;26;20237;-74
2024/04/21 12:27:32;;;;;;;2.70;2.50;;;14.40;99.90;;;;;;5368645;26;20213;-73
2024/04/21 12:29:57;;;;;;;3.07;2.77;;;14.70;99.90;;;;;;5368176;26;20560;-73
2024/04/21 12:32:23;;;;;;;3.20;2.90;;;14.60;99.90;;;;;;5368374;26;20209;-73
2024/04/21 12:34:48;;;;;;;3.23;3.03;;;14.30;99.90;;;;;;5371851;26;20272;-74
2024/04/21 12:37:14;;;;;;;2.80;2.60;;;14.30;99.90;;;;;;5372143;26;20251;-74
2024/04/21 12:39:40;;;;;;;3.37;3.07;;;14.40;99.90;;;;;;5371270;26;20660;-73
2024/04/21 12:42:06;;;;;;;3.17;2.60;;;14.00;99.90;;;;;;5371274;26;20233;-73
2024/04/21 12:44:32;;;;;;;3.07;2.87;;;13.60;99.90;;;;;;5371610;26;20225;-73
2024/04/21 12:46:57;;;;;;;2.90;2.70;;;13.30;99.90;;;;;;5371501;26;20217;-72
2024/04/21 12:49:23;;;;;;;2.93;2.73;;;12.90;99.90;;;;;;5371631;26;20210;-73
2024/04/21 12:51:48;;;;;;;3.67;3.00;;;12.50;99.90;;;;;;5371492;26;20205;-72